Time;durP1;ratioP1;P1;durP2;ratioP2;P2;SDS_P1;SDS_P2;PMS_P1;PMS_P2;Temp;Humidity;BMP_temperature;BMP_pressure;BME280_temperature;BME280_humidity;BME280_pressure;Samples;Min_cycle;Max_cycle;Signal;HPM_P1;HPM_P2
2023/12/06 00:01:32;;;;;;;1.05;1.05;;;;;;;0.61;90.77;96706.72;4994143;28;20066;-70
2023/12/06 00:03:59;;;;;;;1.02;1.02;;;;;;;0.59;91.03;96706.84;5001214;28;20550;-71
2023/12/06 00:06:29;;;;;;;1.08;1.08;;;;;;;0.58;90.68;96701.75;4996428;28;20042;-71
2023/12/06 00:08:56;;;;;;;0.95;0.95;;;;;;;0.58;90.96;96704.38;5000166;28;20125;-72
2023/12/06 00:11:24;;;;;;;1.00;1.00;;;;;;;0.57;91.15;96703.56;4989484;28;20078;-72
2023/12/06 00:13:51;;;;;;;1.50;1.50;;;;;;;0.57;90.96;96705.34;4993930;28;20081;-72
2023/12/06 00:16:19;;;;;;;1.20;1.20;;;;;;;0.60;90.95;96705.06;5001473;28;20414;-71
2023/12/06 00:18:48;;;;;;;1.27;1.27;;;;;;;0.58;91.10;96713.09;4988426;28;20129;-70
2023/12/06 00:21:16;;;;;;;0.55;0.55;;;;;;;0.57;90.95;96714.06;4995664;28;20227;-71
2023/12/06 00:23:45;;;;;;;1.38;1.38;;;;;;;0.60;91.12;96710.31;4993937;28;20133;-71
2023/12/06 00:26:13;;;;;;;1.35;1.35;;;;;;;0.61;91.02;96707.53;4997403;28;20057;-71
2023/12/06 00:28:41;;;;;;;1.10;1.10;;;;;;;0.57;90.76;96708.81;5000661;28;20050;-71
2023/12/06 00:31:10;;;;;;;1.13;1.13;;;;;;;0.58;90.79;96715.72;4994053;28;20046;-71
2023/12/06 00:33:37;;;;;;;1.15;1.15;;;;;;;0.60;90.96;96718.19;4986742;28;20046;-71
2023/12/06 00:36:06;;;;;;;1.05;1.05;;;;;;;0.58;90.96;96715.72;4993510;28;20108;-71
2023/12/06 00:38:33;;;;;;;1.45;1.45;;;;;;;0.58;90.86;96707.00;4992180;28;20047;-71
2023/12/06 00:41:02;;;;;;;1.50;1.50;;;;;;;0.57;90.97;96713.22;4993185;28;20515;-71
2023/12/06 00:43:30;;;;;;;1.00;1.00;;;;;;;0.57;91.06;96714.06;4996992;28;20062;-71
2023/12/06 00:45:57;;;;;;;2.13;2.03;;;;;;;0.61;90.92;96714.59;4998471;28;20046;-71
2023/12/06 00:48:25;;;;;;;1.30;1.30;;;;;;;0.65;90.87;96716.72;4993569;28;20085;-71
2023/12/06 00:50:52;;;;;;;1.38;1.38;;;;;;;0.64;90.83;96716.88;4994292;28;20494;-71
2023/12/06 00:53:20;;;;;;;1.45;1.45;;;;;;;0.65;90.91;96724.59;4993490;28;20039;-71
2023/12/06 00:55:47;;;;;;;0.40;0.40;;;;;;;0.68;90.85;96721.69;4992994;28;20407;-70
2023/12/06 00:58:16;;;;;;;1.55;1.55;;;;;;;0.71;90.78;96721.38;4975668;28;20049;-71
2023/12/06 01:00:44;;;;;;;1.10;1.10;;;;;;;0.72;90.63;96709.91;4995500;28;20093;-71
2023/12/06 01:03:12;;;;;;;1.23;1.23;;;;;;;0.74;90.52;96714.97;4992821;28;20050;-71
2023/12/06 01:05:39;;;;;;;1.40;1.40;;;;;;;0.78;90.45;96724.19;4992712;28;20073;-71
2023/12/06 01:08:07;;;;;;;0.95;0.95;;;;;;;0.81;90.27;96715.19;4994381;28;20038;-72
2023/12/06 01:10:35;;;;;;;1.42;1.42;;;;;;;0.84;90.49;96718.31;4989539;28;20511;-72
2023/12/06 01:13:03;;;;;;;1.20;1.20;;;;;;;0.85;90.32;96722.59;4992593;28;20121;-71
2023/12/06 01:15:32;;;;;;;1.25;1.25;;;;;;;0.88;90.43;96730.16;4992239;28;20037;-72
2023/12/06 01:18:00;;;;;;;1.27;1.27;;;;;;;0.89;90.73;96730.97;4992344;28;20081;-71
2023/12/06 01:20:27;;;;;;;0.52;0.52;;;;;;;0.91;90.78;96726.41;4987596;28;20178;-71
2023/12/06 01:22:55;;;;;;;1.25;1.25;;;;;;;0.92;90.62;96720.19;4993324;28;20042;-72
2023/12/06 01:25:22;;;;;;;1.33;1.33;;;;;;;0.94;90.58;96731.31;4991604;28;20411;-71
2023/12/06 01:27:51;;;;;;;1.30;1.30;;;;;;;0.98;91.01;96732.66;4992596;28;20053;-71
2023/12/06 01:30:18;;;;;;;1.40;1.40;;;;;;;0.99;90.65;96736.94;4992339;28;20042;-71
2023/12/06 01:32:47;;;;;;;0.82;0.82;;;;;;;1.02;90.89;96737.47;4993464;28;20401;-71
2023/12/06 01:35:15;;;;;;;1.15;1.15;;;;;;;1.04;91.04;96735.47;4990536;28;20038;-71
2023/12/06 01:37:43;;;;;;;1.15;1.15;;;;;;;1.03;90.00;96736.50;4992127;28;20471;-72
2023/12/06 01:40:11;;;;;;;1.55;1.55;;;;;;;1.00;89.88;96741.22;4992211;28;20042;-71
2023/12/06 01:42:39;;;;;;;1.35;1.35;;;;;;;1.02;89.52;96734.00;4984451;28;20110;-71
2023/12/06 01:45:08;;;;;;;0.40;0.40;;;;;;;0.98;89.64;96735.28;4997562;28;20442;-71
2023/12/06 01:47:36;;;;;;;1.25;1.25;;;;;;;0.94;89.79;96718.19;4991656;28;20042;-71
2023/12/06 01:50:07;;;;;;;1.23;1.23;;;;;;;0.93;89.61;96727.91;4991525;28;20148;-72
2023/12/06 01:52:34;;;;;;;1.05;1.05;;;;;;;0.90;89.51;96727.38;4991491;28;20048;-71
2023/12/06 01:55:03;;;;;;;0.55;0.55;;;;;;;0.88;89.65;96726.72;4994388;28;20415;-71
2023/12/06 01:57:31;;;;;;;1.23;1.23;;;;;;;0.88;89.54;96713.56;4975512;28;20038;-71
2023/12/06 01:59:59;;;;;;;1.17;1.17;;;;;;;0.88;89.67;96718.81;4991696;28;20058;-70
2023/12/06 02:02:27;;;;;;;0.95;0.95;;;;;;;0.84;89.78;96718.31;4978509;28;20119;-70
2023/12/06 02:04:54;;;;;;;1.58;1.58;;;;;;;0.82;90.03;96717.66;4997796;28;20414;-71
2023/12/06 02:07:23;;;;;;;1.38;1.38;;;;;;;0.80;90.23;96717.00;4993316;28;20039;-71
2023/12/06 02:09:51;;;;;;;1.13;1.13;;;;;;;0.80;89.95;96718.78;4986151;28;20145;-70
2023/12/06 02:12:19;;;;;;;1.00;1.00;;;;;;;0.81;90.15;96715.19;4992406;28;20054;-70
2023/12/06 02:14:47;;;;;;;1.33;1.33;;;;;;;0.80;90.36;96717.00;4993366;28;20057;-71
2023/12/06 02:17:15;;;;;;;1.17;1.17;;;;;;;0.78;90.63;96718.94;4999807;28;20092;-71
2023/12/06 02:19:43;;;;;;;1.23;1.23;;;;;;;0.78;90.43;96718.94;4989592;28;20053;-71
2023/12/06 02:22:11;;;;;;;1.27;1.27;;;;;;;0.78;90.88;96732.06;4993762;28;20388;-71
2023/12/06 02:24:41;;;;;;;1.35;1.35;;;;;;;0.76;91.15;96725.31;4988532;28;20038;-71
2023/12/06 02:27:10;;;;;;;1.20;1.20;;;;;;;0.74;91.29;96723.66;4991411;28;20050;-70
2023/12/06 02:29:38;;;;;;;1.65;1.65;;;;;;;0.73;91.55;96723.81;4991029;28;20046;-71
2023/12/06 02:32:06;;;;;;;1.25;1.25;;;;;;;0.72;91.72;96720.41;4996713;28;20541;-70
2023/12/06 02:34:34;;;;;;;1.15;1.15;;;;;;;0.72;92.22;96727.44;4990426;28;20137;-70
2023/12/06 02:37:04;;;;;;;1.20;1.20;;;;;;;0.72;92.04;96722.19;4994155;28;20206;-70
2023/12/06 02:39:35;;;;;;;1.25;1.25;;;;;;;0.73;92.35;96715.94;4994581;28;20077;-70
2023/12/06 02:42:04;;;;;;;1.38;1.38;;;;;;;0.74;92.37;96709.72;4995104;28;20042;-70
2023/12/06 02:44:34;;;;;;;1.25;1.25;;;;;;;0.73;92.47;96716.78;4989728;28;20051;-71
2023/12/06 02:47:01;;;;;;;1.30;1.30;;;;;;;0.74;92.69;96713.16;4992361;28;20056;-71
2023/12/06 02:49:29;;;;;;;1.17;1.17;;;;;;;0.76;92.69;96717.44;4997853;28;20042;-71
2023/12/06 02:51:57;;;;;;;1.20;1.20;;;;;;;0.76;92.75;96720.06;4991699;28;20042;-70
2023/12/06 02:54:24;;;;;;;1.15;1.15;;;;;;;0.77;92.75;96722.53;4989387;28;20053;-70
2023/12/06 02:56:53;;;;;;;0.98;0.98;;;;;;;0.80;92.71;96716.16;4997459;28;20057;-71
2023/12/06 02:59:21;;;;;;;1.60;1.60;;;;;;;0.80;92.84;96724.03;4993823;28;20129;-71
2023/12/06 03:01:49;;;;;;;1.23;1.23;;;;;;;0.82;92.70;96722.91;4992384;28;20434;-71
2023/12/06 03:04:17;;;;;;;0.40;0.40;;;;;;;0.84;92.73;96715.69;4995000;28;20438;-71
2023/12/06 03:06:45;;;;;;;1.30;1.30;;;;;;;0.87;92.50;96727.69;4998918;28;20041;-71
2023/12/06 03:09:13;;;;;;;1.35;1.35;;;;;;;0.88;92.38;96724.91;4994451;28;20054;-70
2023/12/06 03:11:41;;;;;;;1.42;1.42;;;;;;;0.91;92.39;96727.22;4994735;28;20042;-71
2023/12/06 03:14:08;;;;;;;1.42;1.42;;;;;;;0.90;92.23;96725.59;4999302;28;20046;-70
2023/12/06 03:16:36;;;;;;;0.90;0.90;;;;;;;0.93;92.39;96729.72;5000585;28;20402;-72
2023/12/06 03:19:05;;;;;;;1.10;1.10;;;;;;;0.92;92.32;96725.44;4993360;28;20157;-71
2023/12/06 03:21:33;;;;;;;0.40;0.40;;;;;;;0.92;92.38;96726.25;4993583;28;20427;-71
2023/12/06 03:24:01;;;;;;;1.30;1.30;;;;;;;0.94;92.44;96728.69;4995022;28;20046;-72
2023/12/06 03:26:28;;;;;;;0.90;0.90;;;;;;;0.95;92.43;96725.91;4998163;28;20034;-70
2023/12/06 03:28:56;;;;;;;1.08;1.08;;;;;;;0.94;92.44;96729.53;4994715;28;20053;-73
2023/12/06 03:31:23;;;;;;;0.40;0.40;;;;;;;0.95;92.74;96728.53;4995750;28;20482;-73
2023/12/06 03:33:52;;;;;;;1.33;1.33;;;;;;;0.93;92.86;96724.44;4997307;28;20566;-71
2023/12/06 03:36:21;;;;;;;1.17;1.17;;;;;;;0.91;92.88;96724.59;4997557;28;20069;-71
2023/12/06 03:38:49;;;;;;;0.47;0.47;;;;;;;0.90;92.97;96730.84;4994158;28;20822;-72
2023/12/06 03:41:19;;;;;;;0.30;0.30;;;;;;;0.88;93.18;96735.41;4994235;28;20450;-70
2023/12/06 03:43:46;;;;;;;1.10;1.10;;;;;;;0.88;93.39;96724.09;4997856;28;20366;-71
2023/12/06 03:46:29;;;;;;;1.25;1.25;;;;;;;0.89;93.26;96726.56;5007932;28;20057;-72
2023/12/06 03:48:57;;;;;;;1.20;1.20;;;;;;;0.90;93.34;96732.63;4994406;28;20054;-72
2023/12/06 03:51:26;;;;;;;1.30;1.30;;;;;;;0.93;93.30;96727.06;4994054;28;20049;-72
2023/12/06 03:53:54;;;;;;;1.13;1.13;;;;;;;0.92;93.53;96726.25;4992534;28;20087;-74
2023/12/06 03:56:21;;;;;;;1.40;1.40;;;;;;;0.94;93.23;96728.69;4990906;28;20039;-75
2023/12/06 03:58:49;;;;;;;1.45;1.45;;;;;;;0.91;93.48;96731.66;4994569;28;20085;-72
2023/12/06 04:01:17;;;;;;;1.48;1.48;;;;;;;0.90;93.53;96730.84;5000273;28;20046;-71
2023/12/06 04:03:45;;;;;;;1.00;1.00;;;;;;;0.93;93.57;96730.53;4991889;28;20510;-71
2023/12/06 04:06:12;;;;;;;1.13;1.13;;;;;;;0.91;93.49;96729.84;4994998;28;20385;-72
2023/12/06 04:08:41;;;;;;;1.58;1.58;;;;;;;0.88;93.56;96730.16;4993881;28;20526;-71
2023/12/06 04:11:09;;;;;;;1.15;1.15;;;;;;;0.87;93.78;96732.94;4991643;28;20050;-71
2023/12/06 04:13:36;;;;;;;0.80;0.80;;;;;;;0.86;93.96;96734.75;4993993;28;20046;-72
2023/12/06 04:16:05;;;;;;;1.08;1.08;;;;;;;0.87;93.84;96736.38;4977711;28;20130;-71
2023/12/06 04:18:33;;;;;;;0.90;0.90;;;;;;;0.87;93.78;96733.75;4990503;28;20332;-73
2023/12/06 04:21:01;;;;;;;1.05;1.05;;;;;;;0.87;93.90;96739.00;4992669;28;20129;-72
2023/12/06 04:23:29;;;;;;;1.35;1.35;;;;;;;0.88;94.22;96742.47;4996950;28;20129;-72
2023/12/06 04:25:58;;;;;;;1.63;1.63;;;;;;;0.86;94.12;96734.75;4993600;28;20053;-72
2023/12/06 04:28:25;;;;;;;1.10;1.10;;;;;;;0.88;93.91;96739.84;4993833;28;20042;-72
2023/12/06 04:30:53;;;;;;;0.98;0.98;;;;;;;0.86;94.01;96747.88;4998086;28;20160;-73
2023/12/06 04:33:20;;;;;;;1.27;1.27;;;;;;;0.87;93.98;96739.00;4993423;28;20046;-71
2023/12/06 04:35:48;;;;;;;0.88;0.88;;;;;;;0.87;94.23;96736.38;4993327;28;20066;-72
2023/12/06 04:38:16;;;;;;;1.23;1.23;;;;;;;0.91;93.96;96740.38;4992569;28;20046;-73
2023/12/06 04:40:43;;;;;;;0.95;0.95;;;;;;;0.91;93.83;96737.75;5008238;28;20078;-72
2023/12/06 04:43:12;;;;;;;1.00;1.00;;;;;;;0.93;93.73;96750.72;4988474;28;20046;-72
2023/12/06 04:45:40;;;;;;;1.17;1.17;;;;;;;0.98;93.79;96749.25;4994115;28;20035;-72
2023/12/06 04:48:07;;;;;;;1.27;1.27;;;;;;;0.96;93.37;96745.94;4988753;28;20104;-72
2023/12/06 04:50:35;;;;;;;1.33;1.33;;;;;;;0.98;93.52;96749.25;4992681;28;20047;-72
2023/12/06 04:53:03;;;;;;;0.98;0.98;;;;;;;0.99;93.39;96750.09;4994505;28;20470;-72
2023/12/06 04:55:30;;;;;;;0.50;0.50;;;;;;;1.01;93.51;96748.94;5016962;23;20404;-73
2023/12/06 04:57:58;;;;;;;1.30;1.30;;;;;;;1.04;93.28;96756.50;4992055;28;20454;-73
2023/12/06 05:00:27;;;;;;;1.05;1.05;;;;;;;1.06;93.61;96758.97;4991570;28;20537;-74
2023/12/06 05:02:55;;;;;;;0.90;0.90;;;;;;;1.06;93.24;96757.19;4989610;28;20578;-73
2023/12/06 05:05:22;;;;;;;0.95;0.95;;;;;;;1.06;93.21;96761.59;4993268;28;20518;-73
2023/12/06 05:07:50;;;;;;;1.20;1.20;;;;;;;1.08;93.09;96764.91;4993724;28;20138;-73
2023/12/06 05:10:18;;;;;;;1.02;1.02;;;;;;;1.09;92.82;96756.03;4993090;28;20081;-73
2023/12/06 05:12:46;;;;;;;1.23;1.23;;;;;;;1.09;92.97;96766.56;4992727;28;20042;-73
2023/12/06 05:15:14;;;;;;;1.15;1.15;;;;;;;1.08;92.90;96768.34;4995536;28;20216;-71
2023/12/06 05:17:43;;;;;;;1.10;1.10;;;;;;;1.10;92.69;96769.03;4992143;28;20034;-71
2023/12/06 05:20:12;;;;;;;1.38;1.38;;;;;;;1.13;92.60;96767.06;4991717;28;20196;-72
2023/12/06 05:22:39;;;;;;;1.13;1.13;;;;;;;1.10;92.66;96763.78;4991546;28;20145;-72
2023/12/06 05:25:07;;;;;;;1.05;1.05;;;;;;;1.12;92.71;96765.44;4991751;28;20129;-72
2023/12/06 05:27:35;;;;;;;1.02;1.02;;;;;;;1.14;92.63;96764.28;4992993;28;20050;-72
2023/12/06 05:30:03;;;;;;;0.95;0.95;;;;;;;1.15;92.41;96772.97;4992328;28;20049;-74
2023/12/06 05:32:31;;;;;;;1.23;1.23;;;;;;;1.14;92.15;96777.44;4994700;28;20042;-72
2023/12/06 05:35:00;;;;;;;1.05;1.05;;;;;;;1.13;92.36;96765.28;4995271;28;20081;-72
2023/12/06 05:37:27;;;;;;;1.00;1.00;;;;;;;1.14;92.28;96777.44;4996455;28;20558;-72
2023/12/06 05:39:55;;;;;;;1.15;1.15;;;;;;;1.12;92.50;96771.50;4992469;28;20463;-72
2023/12/06 05:42:23;;;;;;;0.93;0.93;;;;;;;1.10;92.67;96776.09;4992340;28;20046;-72
2023/12/06 05:44:50;;;;;;;1.17;1.17;;;;;;;1.11;92.63;96775.09;4992395;28;20049;-72
2023/12/06 05:47:18;;;;;;;1.00;1.00;;;;;;;1.09;92.84;96772.63;4993343;28;20038;-75
2023/12/06 05:49:46;;;;;;;1.02;1.02;;;;;;;1.05;93.15;96771.28;4993493;28;20113;-74
2023/12/06 05:52:15;;;;;;;0.88;0.88;;;;;;;1.06;93.37;96785.25;4998447;28;20053;-74
2023/12/06 05:54:43;;;;;;;0.28;0.28;;;;;;;1.06;93.49;96774.75;4991423;28;20454;-72
2023/12/06 05:57:11;;;;;;;0.95;0.95;;;;;;;1.04;93.51;96787.19;4991847;28;20042;-72
2023/12/06 05:59:38;;;;;;;2.03;2.03;;;;;;;1.02;93.82;96784.75;4991738;28;20042;-72
2023/12/06 06:02:06;;;;;;;1.10;1.10;;;;;;;1.02;93.75;96784.75;4992057;28;20058;-72
2023/12/06 06:04:33;;;;;;;1.15;1.15;;;;;;;1.03;93.88;96786.41;4991962;28;20491;-72
2023/12/06 06:07:01;;;;;;;0.70;0.70;;;;;;;1.03;93.93;96785.59;4992249;28;20046;-74
2023/12/06 06:09:30;;;;;;;1.30;1.30;;;;;;;1.10;93.99;96783.97;4992075;28;20116;-72
2023/12/06 06:11:58;;;;;;;1.27;1.27;;;;;;;1.06;93.88;96785.25;4990396;28;20152;-75
2023/12/06 06:14:26;;;;;;;1.08;1.08;;;;;;;1.06;93.97;96787.88;4991513;28;20125;-74
2023/12/06 06:16:54;;;;;;;1.15;1.15;;;;;;;1.06;94.23;96790.50;4987513;28;20050;-74
2023/12/06 06:19:21;;;;;;;1.05;1.05;;;;;;;1.06;94.19;96791.31;4991747;28;20042;-74
2023/12/06 06:21:49;;;;;;;1.13;1.13;;;;;;;1.06;94.33;96788.69;4989072;28;20542;-74
2023/12/06 06:24:17;;;;;;;1.15;1.15;;;;;;;1.07;94.36;96790.34;4993860;28;20061;-74
2023/12/06 06:26:46;;;;;;;0.80;0.80;;;;;;;1.06;94.41;96795.75;4991572;28;20042;-74
2023/12/06 06:29:14;;;;;;;1.05;1.05;;;;;;;1.07;94.44;96790.34;4992147;28;20050;-73
2023/12/06 06:31:41;;;;;;;0.95;0.95;;;;;;;1.09;94.26;96796.28;5000801;28;20043;-73
2023/12/06 06:34:09;;;;;;;0.98;0.98;;;;;;;1.13;94.10;96793.34;5003960;28;20046;-74
2023/12/06 06:36:37;;;;;;;1.17;1.17;;;;;;;1.11;94.14;96804.00;4993756;28;20491;-73
2023/12/06 06:39:04;;;;;;;1.40;1.40;;;;;;;1.11;94.38;96804.00;4992582;28;20050;-73
2023/12/06 06:41:32;;;;;;;0.77;0.77;;;;;;;1.13;94.03;96804.69;4992294;28;20038;-74
2023/12/06 06:44:02;;;;;;;0.80;0.80;;;;;;;1.14;93.93;96801.09;4996272;28;20129;-73
2023/12/06 06:46:30;;;;;;;1.23;1.23;;;;;;;1.14;94.00;96813.38;4992052;28;20074;-74
2023/12/06 06:48:57;;;;;;;0.40;0.40;;;;;;;1.15;93.85;96810.59;4991147;28;20400;-72
2023/12/06 06:51:32;;;;;;;0.40;0.40;;;;;;;1.16;93.83;96819.28;4991678;28;20495;-75
2023/12/06 06:53:59;;;;;;;1.33;1.33;;;;;;;1.19;93.86;96821.63;4991382;28;20042;-72
2023/12/06 06:56:27;;;;;;;1.35;1.35;;;;;;;1.19;93.61;96817.19;4991500;28;20137;-72
2023/12/06 06:58:54;;;;;;;0.43;0.43;;;;;;;1.19;93.79;96819.81;4991460;28;20510;-75
2023/12/06 07:01:23;;;;;;;1.15;1.15;;;;;;;1.22;93.67;96826.56;4990024;28;20077;-72
2023/12/06 07:03:52;;;;;;;0.88;0.88;;;;;;;1.21;93.57;96827.53;4984240;28;20074;-72
2023/12/06 07:06:20;;;;;;;0.90;0.90;;;;;;;1.23;93.53;96828.22;4991674;28;20129;-74
2023/12/06 07:08:49;;;;;;;1.27;1.27;;;;;;;1.25;93.15;96831.50;5007241;28;20129;-72
2023/12/06 07:11:17;;;;;;;1.15;1.15;;;;;;;1.22;93.47;96837.91;4991547;28;20050;-74
2023/12/06 07:13:45;;;;;;;0.93;0.93;;;;;;;1.23;93.25;96838.72;4991340;28;20078;-72
2023/12/06 07:16:12;;;;;;;1.25;1.25;;;;;;;1.23;93.57;96836.94;4991013;28;20052;-75
2023/12/06 07:18:42;;;;;;;1.05;1.05;;;;;;;1.23;93.32;96838.72;4990600;28;20048;-72
2023/12/06 07:21:09;;;;;;;0.50;0.50;;;;;;;1.21;93.33;96833.63;4993495;28;20415;-74
2023/12/06 07:23:37;;;;;;;0.98;0.98;;;;;;;1.22;93.29;96837.09;4990922;28;20038;-74
2023/12/06 07:26:07;;;;;;;0.55;0.55;;;;;;;1.23;93.27;96841.38;4990875;28;20412;-73
2023/12/06 07:28:35;;;;;;;1.67;1.63;;;;;;;1.25;93.28;96836.75;4989796;28;20042;-74
2023/12/06 07:31:03;;;;;;;1.73;1.63;;;;;;;1.27;93.23;96848.75;4987128;28;20054;-75
2023/12/06 07:33:31;;;;;;;1.35;1.35;;;;;;;1.32;92.88;96853.56;4990995;28;20046;-74
2023/12/06 07:36:00;;;;;;;1.60;1.50;;;;;;;1.34;92.86;96854.25;4986510;28;20129;-74
2023/12/06 07:38:28;;;;;;;1.52;1.52;;;;;;;1.30;92.70;96858.16;4991101;28;20072;-75
2023/12/06 07:40:56;;;;;;;0.88;0.88;;;;;;;1.29;92.52;96856.50;4984716;28;20128;-74
2023/12/06 07:43:25;;;;;;;0.95;0.95;;;;;;;1.28;92.39;96862.72;4990774;28;20522;-74
2023/12/06 07:45:53;;;;;;;0.30;0.30;;;;;;;1.33;92.24;96863.09;4986816;28;20455;-74
2023/12/06 07:48:20;;;;;;;1.05;1.05;;;;;;;1.32;92.27;96864.91;4992572;28;20053;-74
2023/12/06 07:50:50;;;;;;;0.90;0.90;;;;;;;1.33;92.25;96863.09;4993685;28;20050;-74
2023/12/06 07:53:19;;;;;;;0.95;0.95;;;;;;;1.33;92.40;96873.63;4994414;28;20463;-74
2023/12/06 07:55:47;;;;;;;1.13;1.13;;;;;;;1.34;92.45;96862.13;4994135;28;20046;-73
2023/12/06 07:58:17;;;;;;;0.88;0.88;;;;;;;1.41;91.83;96868.41;4994658;28;20038;-74
2023/12/06 08:00:45;;;;;;;0.88;0.88;;;;;;;1.39;92.11;96872.97;4993610;28;20057;-74
2023/12/06 08:03:13;;;;;;;1.02;0.98;;;;;;;1.37;92.19;96881.03;4995052;28;20094;-74
2023/12/06 08:05:40;;;;;;;0.30;0.30;;;;;;;1.39;92.17;96880.88;5009865;28;20410;-72
2023/12/06 08:08:08;;;;;;;0.95;0.95;;;;;;;1.38;92.15;96889.72;5009959;28;20521;-72
2023/12/06 08:10:41;;;;;;;1.17;1.17;;;;;;;1.44;92.13;96897.00;5009842;28;20050;-72
2023/12/06 08:13:09;;;;;;;1.15;1.15;;;;;;;1.43;92.32;96896.19;4993222;28;20058;-75
2023/12/06 08:15:36;;;;;;;1.17;1.17;;;;;;;1.47;92.18;96894.06;4994275;28;20049;-72
2023/12/06 08:18:06;;;;;;;0.70;0.70;;;;;;;1.46;92.00;96897.66;4993819;28;20053;-73
2023/12/06 08:20:34;;;;;;;0.90;0.90;;;;;;;1.45;92.03;96896.84;4994162;28;20061;-72
2023/12/06 08:23:02;;;;;;;1.00;1.00;;;;;;;1.48;91.85;96906.22;4995166;28;20046;-73
2023/12/06 08:25:30;;;;;;;1.02;1.02;;;;;;;1.54;92.24;96895.09;4994056;28;20034;-73
2023/12/06 08:27:59;;;;;;;1.38;1.38;;;;;;;1.54;92.34;96897.72;4993854;28;20125;-73
2023/12/06 08:30:27;;;;;;;0.82;0.82;;;;;;;1.52;91.99;96909.38;4993428;28;20039;-73
2023/12/06 08:32:55;;;;;;;1.27;1.27;;;;;;;1.52;92.11;96915.47;4993666;28;20046;-73
2023/12/06 08:35:23;;;;;;;0.93;0.93;;;;;;;1.56;92.19;96913.34;4993916;28;20442;-73
2023/12/06 08:37:51;;;;;;;0.95;0.95;;;;;;;1.55;91.59;96909.06;4985909;28;20053;-75
2023/12/06 08:40:19;;;;;;;0.85;0.85;;;;;;;1.56;91.82;96914.16;4993860;28;20054;-74
2023/12/06 08:42:46;;;;;;;0.88;0.88;;;;;;;1.66;91.75;96916.69;4993174;28;20078;-72
2023/12/06 08:45:15;;;;;;;0.88;0.88;;;;;;;1.63;91.59;96909.94;4993868;28;20046;-72
2023/12/06 08:47:43;;;;;;;1.13;1.13;;;;;;;1.68;91.68;96912.09;4993795;28;20050;-74
2023/12/06 08:50:12;;;;;;;0.93;0.93;;;;;;;1.67;91.66;96919.16;4993664;28;20043;-72
2023/12/06 08:52:42;;;;;;;0.70;0.70;;;;;;;1.69;91.76;96917.19;4992126;28;20056;-72
2023/12/06 08:55:10;;;;;;;0.77;0.77;;;;;;;1.69;91.95;96921.63;4992863;28;20050;-72
2023/12/06 08:57:37;;;;;;;1.00;1.00;;;;;;;1.73;91.75;96917.72;4992384;28;20057;-72
2023/12/06 09:00:12;;;;;;;1.10;1.10;;;;;;;1.78;91.25;96920.69;4991652;28;20042;-74
2023/12/06 09:02:42;;;;;;;1.33;1.33;;;;;;;1.82;91.17;96924.66;4992885;28;20069;-73
2023/12/06 09:05:11;;;;;;;1.13;1.13;;;;;;;1.81;90.97;96918.56;4987418;28;20133;-74
2023/12/06 09:07:39;;;;;;;1.13;1.13;;;;;;;1.84;90.93;96923.53;4991971;28;20105;-72
2023/12/06 09:10:08;;;;;;;0.95;0.95;;;;;;;1.89;90.94;96923.03;4993100;28;20133;-72
2023/12/06 09:12:36;;;;;;;0.90;0.90;;;;;;;1.97;91.28;96931.00;4992906;28;20054;-72
2023/12/06 09:15:04;;;;;;;2.00;2.00;;;;;;;2.00;91.23;96929.84;4992629;28;20053;-73
2023/12/06 09:17:32;;;;;;;1.00;1.00;;;;;;;2.04;90.78;96931.19;4993643;28;20050;-75
2023/12/06 09:20:01;;;;;;;1.02;1.02;;;;;;;2.04;90.26;96937.28;4993456;28;20042;-72
2023/12/06 09:22:29;;;;;;;0.75;0.75;;;;;;;2.10;90.13;96927.91;4994448;28;20042;-72
2023/12/06 09:24:57;;;;;;;0.88;0.88;;;;;;;2.12;89.94;96933.84;4994455;28;20274;-73
2023/12/06 09:27:24;;;;;;;0.98;0.98;;;;;;;2.15;89.93;96933.53;4995915;28;20053;-73
2023/12/06 09:29:53;;;;;;;1.15;1.15;;;;;;;2.13;89.99;96940.75;4993641;28;20061;-73
2023/12/06 09:32:20;;;;;;;0.88;0.88;;;;;;;2.15;89.90;96946.69;4988919;28;20042;-75
2023/12/06 09:34:48;;;;;;;0.60;0.60;;;;;;;2.13;89.78;96944.22;4993223;28;20042;-72
2023/12/06 09:37:17;;;;;;;0.70;0.70;;;;;;;2.14;89.54;96945.03;4994873;28;20042;-74
2023/12/06 09:39:45;;;;;;;0.88;0.88;;;;;;;2.13;89.37;96943.38;4994848;28;20049;-72
2023/12/06 09:42:13;;;;;;;1.02;1.02;;;;;;;2.12;89.25;96941.75;4994032;28;20105;-75
2023/12/06 09:44:42;;;;;;;0.90;0.90;;;;;;;2.11;89.23;96940.09;4994471;28;20519;-72
2023/12/06 09:47:11;;;;;;;0.88;0.88;;;;;;;2.12;89.30;96937.31;4993641;28;20093;-72
2023/12/06 09:49:39;;;;;;;0.85;0.85;;;;;;;2.14;89.04;96940.59;4991981;28;20042;-73
2023/12/06 09:52:12;;;;;;;0.77;0.77;;;;;;;2.14;88.49;96939.78;4992573;28;20089;-73
2023/12/06 09:54:41;;;;;;;;;;;;;;;2.16;88.78;96941.28;4992777;28;20132;-72
2023/12/06 09:57:10;;;;;;;1.15;1.15;;;;;;;2.20;88.77;96944.41;4992670;28;19926;-74
2023/12/06 09:59:38;;;;;;;1.05;1.05;;;;;;;2.20;88.83;96949.66;4991768;28;20047;-73
2023/12/06 10:02:05;;;;;;;0.82;0.82;;;;;;;2.20;88.39;96952.28;4993538;28;20068;-74
2023/12/06 10:04:34;;;;;;;1.10;1.10;;;;;;;2.20;88.24;96945.22;4995856;28;20046;-74
2023/12/06 10:07:02;;;;;;;0.88;0.88;;;;;;;2.19;87.95;96956.72;4997367;28;20507;-74
2023/12/06 10:09:30;;;;;;;0.60;0.60;;;;;;;2.23;87.89;96959.88;4999950;28;20566;-73
2023/12/06 10:12:08;;;;;;;0.93;0.93;;;;;;;2.20;87.81;96957.56;4993703;28;20046;-74
2023/12/06 10:14:35;;;;;;;1.00;1.00;;;;;;;2.19;87.87;96953.28;4991802;28;20039;-73
2023/12/06 10:17:03;;;;;;;1.02;1.02;;;;;;;2.19;88.06;96948.84;5006645;28;20053;-74
2023/12/06 10:19:31;;;;;;;1.10;1.10;;;;;;;2.20;87.61;96950.50;4992197;28;20074;-74
2023/12/06 10:22:00;;;;;;;1.40;1.40;;;;;;;2.20;87.69;96952.28;4991578;28;20077;-74
2023/12/06 10:24:28;;;;;;;0.85;0.85;;;;;;;2.22;87.42;96955.59;4990572;28;20058;-74
2023/12/06 10:27:03;;;;;;;0.70;0.70;;;;;;;2.24;87.48;96956.28;4989442;28;20057;-74
2023/12/06 10:29:32;;;;;;;1.10;1.10;;;;;;;2.25;87.04;96952.66;4991915;28;20081;-74
2023/12/06 10:32:00;;;;;;;0.88;0.88;;;;;;;2.25;87.24;96960.56;4991824;28;20050;-73
2023/12/06 10:34:28;;;;;;;0.70;0.70;;;;;;;2.25;87.50;96957.09;4991730;28;20105;-74
2023/12/06 10:36:57;;;;;;;1.05;1.05;;;;;;;2.26;87.45;96956.94;4991948;28;20054;-74
2023/12/06 10:39:27;;;;;;;1.38;1.38;;;;;;;2.26;87.32;96964.84;4992867;28;20118;-74
2023/12/06 10:41:56;;;;;;;1.33;1.33;;;;;;;2.25;87.15;96963.19;5006525;28;20515;-73
2023/12/06 10:44:23;;;;;;;1.30;1.30;;;;;;;2.27;87.46;96955.97;4991842;28;20049;-74
2023/12/06 10:46:53;;;;;;;1.17;1.17;;;;;;;2.27;87.57;96968.28;4991161;28;20042;-74
2023/12/06 10:49:32;;;;;;;1.02;1.02;;;;;;;2.29;87.48;96971.56;4991721;28;20083;-74
2023/12/06 10:52:00;;;;;;;1.00;1.00;;;;;;;2.32;87.13;96972.09;4992152;28;20129;-72
2023/12/06 10:54:29;;;;;;;1.08;1.08;;;;;;;2.30;87.25;96966.16;5021378;22;20057;-73
2023/12/06 10:56:58;;;;;;;1.25;1.25;;;;;;;2.29;87.05;96963.69;5041356;28;20041;-72
2023/12/06 10:59:27;;;;;;;0.77;0.77;;;;;;;2.31;87.34;96964.34;5057420;28;20060;-73
2023/12/06 11:01:56;;;;;;;0.98;0.98;;;;;;;2.28;87.36;96962.06;5068598;28;20056;-73
2023/12/06 11:04:25;;;;;;;0.98;0.98;;;;;;;2.33;87.54;96965.03;5050129;28;20048;-72
2023/12/06 11:07:04;;;;;;;1.05;1.05;;;;;;;2.31;87.31;96962.53;5049403;28;20047;-72
2023/12/06 11:09:37;;;;;;;0.90;0.90;;;;;;;2.31;87.17;96965.16;5050550;28;20029;-72
2023/12/06 11:12:12;;;;;;;0.93;0.93;;;;;;;2.38;87.12;96962.75;5053691;28;20128;-70
2023/12/06 11:15:02;;;;;;;0.93;0.93;;;;;;;2.38;87.25;96953.03;5057394;28;20533;-72
2023/12/06 11:17:39;;;;;;;0.93;0.93;;;;;;;2.41;87.00;96957.97;5058466;28;20098;-72
2023/12/06 11:20:09;;;;;;;1.17;1.17;;;;;;;2.42;86.88;96951.72;5048792;28;20083;-72
2023/12/06 11:22:36;;;;;;;1.08;1.08;;;;;;;2.39;87.30;96952.03;5050571;28;20063;-72
2023/12/06 11:25:17;;;;;;;0.98;0.98;;;;;;;2.45;87.07;96945.31;5047265;28;20037;-72
2023/12/06 11:27:45;;;;;;;1.23;1.23;;;;;;;2.51;86.76;96942.84;5054866;28;20151;-74
2023/12/06 11:30:16;;;;;;;1.15;1.15;;;;;;;2.53;86.77;96945.34;5055004;28;20052;-73
2023/12/06 11:32:46;;;;;;;0.80;0.80;;;;;;;2.55;86.84;96940.72;5047994;28;20497;-72
2023/12/06 11:35:14;;;;;;;0.93;0.93;;;;;;;2.52;86.82;96951.59;5049982;28;20068;-73
2023/12/06 11:37:51;;;;;;;0.95;0.95;;;;;;;2.57;86.73;96950.13;5045691;28;20036;-74
2023/12/06 11:40:22;;;;;;;1.05;1.05;;;;;;;2.55;86.95;96948.63;5052471;28;20032;-72
2023/12/06 11:42:58;;;;;;;0.20;0.20;;;;;;;2.52;87.00;96946.31;5055230;28;20400;-72
2023/12/06 11:45:27;;;;;;;0.95;0.95;;;;;;;2.54;87.00;96952.25;5050793;28;20064;-72
2023/12/06 11:47:58;;;;;;;1.20;1.20;;;;;;;2.54;87.02;96950.44;5048047;28;20428;-72